sensor_id;sensor_type;location;lat;lon;timestamp;pressure;altitude;pressure_sealevel;temperature;humidity
36538;BME280;22545;48.892;9.138;2022-07-29T00:02:17;97892.56;;;19.77;100.00
36538;BME280;22545;48.892;9.138;2022-07-29T00:04:43;97885.34;;;19.80;100.00
36538;BME280;22545;48.892;9.138;2022-07-29T00:07:08;97887.09;;;19.69;100.00
36538;BME280;22545;48.892;9.138;2022-07-29T00:09:33;97887.69;;;19.50;100.00
36538;BME280;22545;48.892;9.138;2022-07-29T00:11:59;97869.41;;;19.61;100.00
36538;BME280;22545;48.892;9.138;2022-07-29T00:14:25;97867.28;;;19.55;100.00
36538;BME280;22545;48.892;9.138;2022-07-29T00:16:50;97869.41;;;19.61;100.00
36538;BME280;22545;48.892;9.138;2022-07-29T00:19:15;97869.19;;;19.64;100.00
36538;BME280;22545;48.892;9.138;2022-07-29T00:21:41;97870.47;;;19.58;100.00
36538;BME280;22545;48.892;9.138;2022-07-29T00:24:06;97865.88;;;19.62;100.00
36538;BME280;22545;48.892;9.138;2022-07-29T00:26:31;97862.41;;;19.61;100.00
36538;BME280;22545;48.892;9.138;2022-07-29T00:29:01;97867.63;;;19.50;100.00
36538;BME280;22545;48.892;9.138;2022-07-29T00:31:26;97865.13;;;19.60;100.00
36538;BME280;22545;48.892;9.138;2022-07-29T00:33:52;97868.13;;;19.67;100.00
36538;BME280;22545;48.892;9.138;2022-07-29T00:36:17;97858.63;;;19.66;100.00
36538;BME280;22545;48.892;9.138;2022-07-29T00:38:42;97861.72;;;19.59;100.00
36538;BME280;22545;48.892;9.138;2022-07-29T00:41:10;97854.56;;;19.39;100.00
36538;BME280;22545;48.892;9.138;2022-07-29T00:43:35;97864.63;;;19.09;100.00
36538;BME280;22545;48.892;9.138;2022-07-29T00:46:00;97855.84;;;18.99;100.00
36538;BME280;22545;48.892;9.138;2022-07-29T00:48:26;97849.28;;;18.93;100.00
36538;BME280;22545;48.892;9.138;2022-07-29T00:50:51;97854.50;;;18.93;100.00
36538;BME280;22545;48.892;9.138;2022-07-29T00:53:17;97847.44;;;19.07;100.00
36538;BME280;22545;48.892;9.138;2022-07-29T00:55:44;97851.31;;;19.01;100.00
36538;BME280;22545;48.892;9.138;2022-07-29T00:58:09;97843.19;;;19.06;100.00
36538;BME280;22545;48.892;9.138;2022-07-29T01:00:36;97845.56;;;19.09;100.00
36538;BME280;22545;48.892;9.138;2022-07-29T01:03:02;97843.53;;;19.13;100.00
36538;BME280;22545;48.892;9.138;2022-07-29T01:05:27;97841.63;;;19.15;100.00
36538;BME280;22545;48.892;9.138;2022-07-29T01:07:53;97850.78;;;19.20;100.00
36538;BME280;22545;48.892;9.138;2022-07-29T01:10:19;97842.59;;;19.25;100.00
36538;BME280;22545;48.892;9.138;2022-07-29T01:12:46;97843.44;;;19.25;100.00
36538;BME280;22545;48.892;9.138;2022-07-29T01:15:11;97835.38;;;19.40;100.00
36538;BME280;22545;48.892;9.138;2022-07-29T01:17:56;97844.38;;;19.24;100.00
36538;BME280;22545;48.892;9.138;2022-07-29T01:23:27;97839.16;;;19.36;100.00
36538;BME280;22545;48.892;9.138;2022-07-29T01:29:02;97842.03;;;19.44;100.00
36538;BME280;22545;48.892;9.138;2022-07-29T01:31:33;97851.16;;;19.50;100.00
36538;BME280;22545;48.892;9.138;2022-07-29T01:34:02;97838.84;;;19.52;100.00
36538;BME280;22545;48.892;9.138;2022-07-29T01:36:40;97837.78;;;19.54;100.00
36538;BME280;22545;48.892;9.138;2022-07-29T01:39:12;97843.94;;;19.53;100.00
36538;BME280;22545;48.892;9.138;2022-07-29T01:41:40;97836.22;;;19.40;100.00
36538;BME280;22545;48.892;9.138;2022-07-29T01:44:17;97830.75;;;19.32;100.00
36538;BME280;22545;48.892;9.138;2022-07-29T01:46:44;97832.66;;;19.07;100.00
36538;BME280;22545;48.892;9.138;2022-07-29T01:49:15;97827.44;;;19.07;100.00
36538;BME280;22545;48.892;9.138;2022-07-29T01:51:51;97821.72;;;19.02;100.00
36538;BME280;22545;48.892;9.138;2022-07-29T01:56:53;97828.56;;;18.92;100.00
36538;BME280;22545;48.892;9.138;2022-07-29T01:59:20;97831.69;;;18.73;100.00
36538;BME280;22545;48.892;9.138;2022-07-29T02:01:46;97821.56;;;18.57;100.00
36538;BME280;22545;48.892;9.138;2022-07-29T02:04:12;97814.91;;;18.42;100.00
36538;BME280;22545;48.892;9.138;2022-07-29T02:06:39;97832.94;;;18.56;100.00
36538;BME280;22545;48.892;9.138;2022-07-29T02:09:05;97827.06;;;18.65;100.00
36538;BME280;22545;48.892;9.138;2022-07-29T02:11:31;97818.16;;;18.68;100.00
36538;BME280;22545;48.892;9.138;2022-07-29T02:13:58;97815.44;;;18.69;100.00
36538;BME280;22545;48.892;9.138;2022-07-29T02:16:25;97817.13;;;18.70;100.00
36538;BME280;22545;48.892;9.138;2022-07-29T02:18:52;97812.72;;;18.71;100.00
36538;BME280;22545;48.892;9.138;2022-07-29T02:21:19;97819.25;;;18.77;100.00
36538;BME280;22545;48.892;9.138;2022-07-29T02:23:46;97816.44;;;18.80;100.00
36538;BME280;22545;48.892;9.138;2022-07-29T02:26:12;97818.38;;;18.89;100.00
36538;BME280;22545;48.892;9.138;2022-07-29T02:28:38;97816.28;;;18.94;100.00
36538;BME280;22545;48.892;9.138;2022-07-29T02:31:03;97818.31;;;18.78;100.00
36538;BME280;22545;48.892;9.138;2022-07-29T02:33:30;97812.38;;;18.64;100.00
36538;BME280;22545;48.892;9.138;2022-07-29T02:35:56;97819.34;;;18.64;100.00
36538;BME280;22545;48.892;9.138;2022-07-29T02:38:21;97822.16;;;18.61;100.00
36538;BME280;22545;48.892;9.138;2022-07-29T02:41:11;97825.63;;;18.61;100.00
36538;BME280;22545;48.892;9.138;2022-07-29T02:43:37;97826.69;;;18.94;100.00
36538;BME280;22545;48.892;9.138;2022-07-29T02:46:03;97829.53;;;18.91;100.00
36538;BME280;22545;48.892;9.138;2022-07-29T02:48:34;97827.28;;;18.86;100.00
36538;BME280;22545;48.892;9.138;2022-07-29T02:51:03;97835.25;;;18.72;100.00
36538;BME280;22545;48.892;9.138;2022-07-29T02:53:30;97830.63;;;18.75;100.00
36538;BME280;22545;48.892;9.138;2022-07-29T02:56:14;97818.16;;;18.68;100.00
36538;BME280;22545;48.892;9.138;2022-07-29T02:58:41;97826.59;;;18.71;100.00
36538;BME280;22545;48.892;9.138;2022-07-29T03:01:08;97820.53;;;18.71;100.00
36538;BME280;22545;48.892;9.138;2022-07-29T03:03:37;97825.34;;;18.53;100.00
36538;BME280;22545;48.892;9.138;2022-07-29T03:06:03;97821.03;;;18.40;100.00
36538;BME280;22545;48.892;9.138;2022-07-29T03:08:29;97820.31;;;18.38;100.00
36538;BME280;22545;48.892;9.138;2022-07-29T03:10:54;97827.41;;;18.36;100.00
36538;BME280;22545;48.892;9.138;2022-07-29T03:13:20;97817.06;;;18.59;100.00
36538;BME280;22545;48.892;9.138;2022-07-29T03:15:46;97826.72;;;18.81;100.00
36538;BME280;22545;48.892;9.138;2022-07-29T03:18:12;97824.25;;;18.80;100.00
36538;BME280;22545;48.892;9.138;2022-07-29T03:20:38;97828.13;;;18.74;100.00
36538;BME280;22545;48.892;9.138;2022-07-29T03:23:03;97836.22;;;18.82;100.00
36538;BME280;22545;48.892;9.138;2022-07-29T03:25:29;97829.09;;;18.84;100.00
36538;BME280;22545;48.892;9.138;2022-07-29T03:27:54;97827.97;;;18.88;100.00
36538;BME280;22545;48.892;9.138;2022-07-29T03:30:21;97822.88;;;18.87;100.00
36538;BME280;22545;48.892;9.138;2022-07-29T03:32:46;97824.09;;;18.94;100.00
36538;BME280;22545;48.892;9.138;2022-07-29T03:35:11;97828.53;;;18.81;100.00
36538;BME280;22545;48.892;9.138;2022-07-29T03:37:37;97837.47;;;18.89;100.00
36538;BME280;22545;48.892;9.138;2022-07-29T03:40:03;97831.72;;;18.84;100.00
36538;BME280;22545;48.892;9.138;2022-07-29T03:42:32;97829.31;;;18.70;100.00
36538;BME280;22545;48.892;9.138;2022-07-29T03:44:59;97835.25;;;18.72;100.00
36538;BME280;22545;48.892;9.138;2022-07-29T03:47:27;97832.06;;;18.80;100.00
36538;BME280;22545;48.892;9.138;2022-07-29T03:49:54;97837.72;;;18.98;100.00
36538;BME280;22545;48.892;9.138;2022-07-29T03:52:20;97831.91;;;18.94;100.00
36538;BME280;22545;48.892;9.138;2022-07-29T03:54:46;97830.97;;;18.71;100.00
36538;BME280;22545;48.892;9.138;2022-07-29T03:57:11;97831.94;;;18.70;100.00
36538;BME280;22545;48.892;9.138;2022-07-29T03:59:37;97834.31;;;18.73;100.00
36538;BME280;22545;48.892;9.138;2022-07-29T04:02:04;97838.44;;;18.75;100.00
36538;BME280;22545;48.892;9.138;2022-07-29T04:04:32;97827.16;;;18.64;100.00
36538;BME280;22545;48.892;9.138;2022-07-29T04:06:57;97827.03;;;18.30;100.00
36538;BME280;22545;48.892;9.138;2022-07-29T04:09:22;97823.97;;;18.12;100.00
36538;BME280;22545;48.892;9.138;2022-07-29T04:11:48;97827.25;;;18.02;100.00
36538;BME280;22545;48.892;9.138;2022-07-29T04:14:13;97836.44;;;18.19;100.00
36538;BME280;22545;48.892;9.138;2022-07-29T04:16:38;97834.53;;;18.21;100.00
36538;BME280;22545;48.892;9.138;2022-07-29T04:19:04;97839.63;;;18.23;100.00
36538;BME280;22545;48.892;9.138;2022-07-29T04:21:29;97839.34;;;18.28;100.00
36538;BME280;22545;48.892;9.138;2022-07-29T04:23:54;97838.22;;;18.19;100.00
36538;BME280;22545;48.892;9.138;2022-07-29T04:26:19;97836.84;;;18.26;100.00
36538;BME280;22545;48.892;9.138;2022-07-29T04:28:45;97838.72;;;18.24;100.00
36538;BME280;22545;48.892;9.138;2022-07-29T04:31:11;97839.03;;;18.19;100.00
36538;BME280;22545;48.892;9.138;2022-07-29T04:33:36;97838.25;;;18.30;100.00
36538;BME280;22545;48.892;9.138;2022-07-29T04:36:02;97839.22;;;18.29;100.00
36538;BME280;22545;48.892;9.138;2022-07-29T04:38:27;97838.09;;;18.45;100.00
36538;BME280;22545;48.892;9.138;2022-07-29T04:40:52;97840.41;;;18.36;100.00
36538;BME280;22545;48.892;9.138;2022-07-29T04:43:17;97843.56;;;18.29;100.00
36538;BME280;22545;48.892;9.138;2022-07-29T04:45:42;97843.56;;;18.29;100.00
36538;BME280;22545;48.892;9.138;2022-07-29T04:48:08;97846.81;;;18.32;100.00
36538;BME280;22545;48.892;9.138;2022-07-29T04:50:33;97846.06;;;18.30;100.00
36538;BME280;22545;48.892;9.138;2022-07-29T04:52:58;97836.06;;;18.37;100.00
36538;BME280;22545;48.892;9.138;2022-07-29T04:55:24;97836.78;;;18.39;100.00
36538;BME280;22545;48.892;9.138;2022-07-29T04:57:50;97824.88;;;18.24;100.00
36538;BME280;22545;48.892;9.138;2022-07-29T05:00:15;97828.63;;;18.19;100.00
36538;BME280;22545;48.892;9.138;2022-07-29T05:02:40;97839.16;;;18.18;100.00
36538;BME280;22545;48.892;9.138;2022-07-29T05:05:06;97835.66;;;18.30;100.00
36538;BME280;22545;48.892;9.138;2022-07-29T05:07:31;97837.34;;;18.31;100.00
36538;BME280;22545;48.892;9.138;2022-07-29T05:09:56;97842.34;;;18.21;100.00
36538;BME280;22545;48.892;9.138;2022-07-29T05:12:22;97834.44;;;18.23;100.00
36538;BME280;22545;48.892;9.138;2022-07-29T05:14:48;97847.16;;;18.28;100.00
36538;BME280;22545;48.892;9.138;2022-07-29T05:17:13;97843.97;;;18.35;100.00
36538;BME280;22545;48.892;9.138;2022-07-29T05:19:38;97846.63;;;18.47;100.00
36538;BME280;22545;48.892;9.138;2022-07-29T05:22:03;97844.75;;;18.49;100.00
36538;BME280;22545;48.892;9.138;2022-07-29T05:24:30;97846.13;;;18.66;100.00
36538;BME280;22545;48.892;9.138;2022-07-29T05:26:56;97841.94;;;18.87;100.00
36538;BME280;22545;48.892;9.138;2022-07-29T05:29:21;97838.31;;;18.77;100.00
36538;BME280;22545;48.892;9.138;2022-07-29T05:31:46;97845.75;;;18.95;100.00
36538;BME280;22545;48.892;9.138;2022-07-29T05:34:11;97844.59;;;19.10;100.00
36538;BME280;22545;48.892;9.138;2022-07-29T05:36:37;97846.88;;;19.26;100.00
36538;BME280;22545;48.892;9.138;2022-07-29T05:39:02;97847.97;;;19.35;100.00
36538;BME280;22545;48.892;9.138;2022-07-29T05:41:27;97858.47;;;19.22;100.00
36538;BME280;22545;48.892;9.138;2022-07-29T05:43:53;97849.84;;;19.55;100.00
36538;BME280;22545;48.892;9.138;2022-07-29T05:46:19;97851.41;;;19.80;100.00
36538;BME280;22545;48.892;9.138;2022-07-29T05:48:44;97857.22;;;19.50;100.00
36538;BME280;22545;48.892;9.138;2022-07-29T05:51:09;97861.00;;;19.46;100.00
36538;BME280;22545;48.892;9.138;2022-07-29T05:53:35;97861.22;;;19.43;100.00
36538;BME280;22545;48.892;9.138;2022-07-29T05:56:02;97862.66;;;19.58;100.00
36538;BME280;22545;48.892;9.138;2022-07-29T05:58:28;97860.50;;;19.52;100.00
36538;BME280;22545;48.892;9.138;2022-07-29T06:00:53;97860.31;;;19.78;100.00
36538;BME280;22545;48.892;9.138;2022-07-29T06:03:18;97870.13;;;19.97;100.00
36538;BME280;22545;48.892;9.138;2022-07-29T06:05:44;97873.47;;;20.43;100.00
36538;BME280;22545;48.892;9.138;2022-07-29T06:08:09;97882.31;;;20.63;100.00
36538;BME280;22545;48.892;9.138;2022-07-29T06:10:34;97881.31;;;21.08;100.00
36538;BME280;22545;48.892;9.138;2022-07-29T06:13:00;97877.84;;;20.86;100.00
36538;BME280;22545;48.892;9.138;2022-07-29T06:15:25;97877.84;;;20.86;100.00
36538;BME280;22545;48.892;9.138;2022-07-29T06:17:51;97884.88;;;21.28;100.00
36538;BME280;22545;48.892;9.138;2022-07-29T06:20:16;97887.50;;;21.28;100.00
36538;BME280;22545;48.892;9.138;2022-07-29T06:22:41;97879.56;;;22.01;100.00
36538;BME280;22545;48.892;9.138;2022-07-29T06:25:07;97877.97;;;22.29;100.00
36538;BME280;22545;48.892;9.138;2022-07-29T06:27:32;97875.41;;;22.39;100.00
36538;BME280;22545;48.892;9.138;2022-07-29T06:29:57;97883.34;;;22.27;100.00
36538;BME280;22545;48.892;9.138;2022-07-29T06:32:23;97878.34;;;21.43;100.00
36538;BME280;22545;48.892;9.138;2022-07-29T06:34:48;97887.19;;;21.73;100.00
36538;BME280;22545;48.892;9.138;2022-07-29T06:37:13;97886.25;;;21.84;100.00
36538;BME280;22545;48.892;9.138;2022-07-29T06:39:39;97893.59;;;21.59;100.00
36538;BME280;22545;48.892;9.138;2022-07-29T06:42:04;97894.25;;;21.51;100.00
36538;BME280;22545;48.892;9.138;2022-07-29T06:44:29;97895.38;;;21.37;100.00
36538;BME280;22545;48.892;9.138;2022-07-29T06:46:56;97897.66;;;22.14;100.00
36538;BME280;22545;48.892;9.138;2022-07-29T06:49:21;97893.19;;;21.95;100.00
36538;BME280;22545;48.892;9.138;2022-07-29T06:51:47;97893.03;;;21.86;100.00
36538;BME280;22545;48.892;9.138;2022-07-29T06:54:12;97898.41;;;22.35;100.00
36538;BME280;22545;48.892;9.138;2022-07-29T06:56:37;97897.75;;;23.31;100.00
36538;BME280;22545;48.892;9.138;2022-07-29T06:59:03;97899.25;;;24.36;100.00
36538;BME280;22545;48.892;9.138;2022-07-29T07:01:29;97906.91;;;25.02;100.00
36538;BME280;22545;48.892;9.138;2022-07-29T07:03:54;97900.16;;;25.17;100.00
36538;BME280;22545;48.892;9.138;2022-07-29T07:06:19;97899.38;;;26.71;100.00
36538;BME280;22545;48.892;9.138;2022-07-29T07:08:45;97900.41;;;27.84;100.00
36538;BME280;22545;48.892;9.138;2022-07-29T07:11:10;97904.44;;;29.12;91.63
36538;BME280;22545;48.892;9.138;2022-07-29T07:13:36;97903.88;;;29.99;77.99
36538;BME280;22545;48.892;9.138;2022-07-29T07:16:01;97903.25;;;29.53;78.91
36538;BME280;22545;48.892;9.138;2022-07-29T07:18:27;97907.47;;;28.63;89.17
36538;BME280;22545;48.892;9.138;2022-07-29T07:20:53;97901.25;;;29.17;83.19
36538;BME280;22545;48.892;9.138;2022-07-29T07:23:18;97911.09;;;30.06;77.21
36538;BME280;22545;48.892;9.138;2022-07-29T07:25:43;97904.41;;;30.25;72.35
36538;BME280;22545;48.892;9.138;2022-07-29T07:28:08;97905.66;;;30.29;75.53
36538;BME280;22545;48.892;9.138;2022-07-29T07:30:34;97912.84;;;30.50;70.46
36538;BME280;22545;48.892;9.138;2022-07-29T07:32:59;97906.53;;;30.14;72.89
36538;BME280;22545;48.892;9.138;2022-07-29T07:35:25;97907.72;;;30.33;77.28
36538;BME280;22545;48.892;9.138;2022-07-29T07:37:52;97915.84;;;30.83;69.30
36538;BME280;22545;48.892;9.138;2022-07-29T07:40:17;97915.00;;;30.61;69.46
36538;BME280;22545;48.892;9.138;2022-07-29T07:42:43;97903.97;;;31.29;62.24
36538;BME280;22545;48.892;9.138;2022-07-29T07:45:08;97907.84;;;31.55;59.25
36538;BME280;22545;48.892;9.138;2022-07-29T07:47:37;97910.00;;;32.96;53.42
36538;BME280;22545;48.892;9.138;2022-07-29T07:50:06;97910.44;;;31.48;58.19
36538;BME280;22545;48.892;9.138;2022-07-29T07:52:31;97906.22;;;31.96;54.95
36538;BME280;22545;48.892;9.138;2022-07-29T07:54:57;97915.03;;;30.10;68.30
36538;BME280;22545;48.892;9.138;2022-07-29T07:57:22;97915.88;;;28.89;79.47
36538;BME280;22545;48.892;9.138;2022-07-29T07:59:47;97916.56;;;29.06;80.58
36538;BME280;22545;48.892;9.138;2022-07-29T08:02:12;97913.06;;;29.29;81.05
36538;BME280;22545;48.892;9.138;2022-07-29T08:04:38;97915.97;;;29.19;83.12
36538;BME280;22545;48.892;9.138;2022-07-29T08:07:05;97923.16;;;29.10;81.11
36538;BME280;22545;48.892;9.138;2022-07-29T08:09:31;97926.69;;;28.80;83.03
36538;BME280;22545;48.892;9.138;2022-07-29T08:11:57;97916.84;;;28.02;88.92
36538;BME280;22545;48.892;9.138;2022-07-29T08:14:23;97928.16;;;28.82;85.04
36538;BME280;22545;48.892;9.138;2022-07-29T08:16:48;97921.94;;;28.98;83.68
36538;BME280;22545;48.892;9.138;2022-07-29T08:19:14;97914.22;;;28.88;87.96
36538;BME280;22545;48.892;9.138;2022-07-29T08:21:39;97921.56;;;28.78;81.37
36538;BME280;22545;48.892;9.138;2022-07-29T08:24:05;97918.13;;;29.69;72.98
36538;BME280;22545;48.892;9.138;2022-07-29T08:26:48;97916.91;;;31.67;64.08
36538;BME280;22545;48.892;9.138;2022-07-29T08:29:14;97914.13;;;32.24;58.89
36538;BME280;22545;48.892;9.138;2022-07-29T08:31:39;97923.31;;;33.10;55.25
36538;BME280;22545;48.892;9.138;2022-07-29T08:34:04;97922.44;;;33.76;47.28
36538;BME280;22545;48.892;9.138;2022-07-29T08:36:30;97917.09;;;32.62;51.90
36538;BME280;22545;48.892;9.138;2022-07-29T08:38:56;97919.22;;;33.07;52.92
36538;BME280;22545;48.892;9.138;2022-07-29T08:41:21;97918.34;;;33.60;47.81
36538;BME280;22545;48.892;9.138;2022-07-29T08:43:47;97910.28;;;34.78;46.89
36538;BME280;22545;48.892;9.138;2022-07-29T08:46:12;97911.88;;;35.61;39.85
36538;BME280;22545;48.892;9.138;2022-07-29T08:48:38;97907.31;;;36.17;36.43
36538;BME280;22545;48.892;9.138;2022-07-29T08:51:03;97913.75;;;36.58;34.65
36538;BME280;22545;48.892;9.138;2022-07-29T08:53:31;97907.25;;;35.68;34.97
36538;BME280;22545;48.892;9.138;2022-07-29T08:55:57;97907.47;;;36.04;36.44
36538;BME280;22545;48.892;9.138;2022-07-29T08:58:23;97909.66;;;36.44;35.97
36538;BME280;22545;48.892;9.138;2022-07-29T09:00:55;97914.50;;;36.35;35.68
36538;BME280;22545;48.892;9.138;2022-07-29T09:03:22;97921.53;;;35.99;36.27
36538;BME280;22545;48.892;9.138;2022-07-29T09:05:48;97907.06;;;35.88;37.67
36538;BME280;22545;48.892;9.138;2022-07-29T09:08:13;97916.38;;;36.35;37.28
36538;BME280;22545;48.892;9.138;2022-07-29T09:10:39;97930.72;;;37.36;36.22
36538;BME280;22545;48.892;9.138;2022-07-29T09:13:04;97918.44;;;37.17;34.94
36538;BME280;22545;48.892;9.138;2022-07-29T09:15:30;97911.69;;;36.60;35.79
36538;BME280;22545;48.892;9.138;2022-07-29T09:17:55;97908.19;;;35.12;37.90
36538;BME280;22545;48.892;9.138;2022-07-29T09:20:21;97905.94;;;34.51;39.70
36538;BME280;22545;48.892;9.138;2022-07-29T09:22:48;97916.91;;;33.78;40.58
36538;BME280;22545;48.892;9.138;2022-07-29T09:25:14;97914.06;;;34.31;40.03
36538;BME280;22545;48.892;9.138;2022-07-29T09:27:40;97913.25;;;34.63;40.09
36538;BME280;22545;48.892;9.138;2022-07-29T09:30:06;97914.88;;;34.96;37.97
36538;BME280;22545;48.892;9.138;2022-07-29T09:32:32;97909.09;;;34.35;40.32
36538;BME280;22545;48.892;9.138;2022-07-29T09:35:14;97909.69;;;35.33;37.96
36538;BME280;22545;48.892;9.138;2022-07-29T09:37:40;97906.69;;;34.27;38.60
36538;BME280;22545;48.892;9.138;2022-07-29T09:40:38;97904.75;;;33.89;38.98
36538;BME280;22545;48.892;9.138;2022-07-29T09:42:56;97899.47;;;33.62;39.12
36538;BME280;22545;48.892;9.138;2022-07-29T09:45:26;97904.81;;;33.68;39.94
36538;BME280;22545;48.892;9.138;2022-07-29T09:47:51;97904.06;;;33.28;39.86
36538;BME280;22545;48.892;9.138;2022-07-29T09:50:16;97832.53;;;32.71;39.93
36538;BME280;22545;48.892;9.138;2022-07-29T09:52:48;97893.34;;;34.20;38.32
36538;BME280;22545;48.892;9.138;2022-07-29T09:55:13;97894.50;;;33.85;38.32
36538;BME280;22545;48.892;9.138;2022-07-29T09:57:39;97890.47;;;32.62;41.31
36538;BME280;22545;48.892;9.138;2022-07-29T10:00:08;97895.63;;;33.44;39.54
36538;BME280;22545;48.892;9.138;2022-07-29T10:02:35;97901.59;;;33.20;40.62
36538;BME280;22545;48.892;9.138;2022-07-29T10:05:01;97892.75;;;34.18;38.49
36538;BME280;22545;48.892;9.138;2022-07-29T10:07:42;97890.72;;;34.84;37.11
36538;BME280;22545;48.892;9.138;2022-07-29T10:10:07;97892.22;;;33.96;38.88
36538;BME280;22545;48.892;9.138;2022-07-29T10:12:33;97904.22;;;33.60;38.51
36538;BME280;22545;48.892;9.138;2022-07-29T10:14:58;97895.75;;;32.42;41.94
36538;BME280;22545;48.892;9.138;2022-07-29T10:17:26;97896.16;;;31.84;44.93
36538;BME280;22545;48.892;9.138;2022-07-29T10:19:51;97894.38;;;32.05;45.73
36538;BME280;22545;48.892;9.138;2022-07-29T10:22:17;97881.81;;;32.27;45.84
36538;BME280;22545;48.892;9.138;2022-07-29T10:24:42;97884.28;;;31.87;44.60
36538;BME280;22545;48.892;9.138;2022-07-29T10:27:08;97896.47;;;31.39;48.96
36538;BME280;22545;48.892;9.138;2022-07-29T10:29:34;97892.19;;;31.10;48.18
36538;BME280;22545;48.892;9.138;2022-07-29T10:37:03;97889.91;;;29.91;53.17
36538;BME280;22545;48.892;9.138;2022-07-29T10:44:32;97889.81;;;29.01;58.53
36538;BME280;22545;48.892;9.138;2022-07-29T10:46:58;97887.47;;;28.60;60.20
36538;BME280;22545;48.892;9.138;2022-07-29T10:49:24;97879.78;;;28.11;61.80
36538;BME280;22545;48.892;9.138;2022-07-29T10:51:59;97885.81;;;27.88;67.02
36538;BME280;22545;48.892;9.138;2022-07-29T10:59:41;97875.97;;;27.73;69.40
36538;BME280;22545;48.892;9.138;2022-07-29T11:07:16;97875.53;;;27.53;72.83
36538;BME280;22545;48.892;9.138;2022-07-29T11:09:42;97874.59;;;27.46;70.34
36538;BME280;22545;48.892;9.138;2022-07-29T11:14:55;97869.97;;;27.40;63.70
36538;BME280;22545;48.892;9.138;2022-07-29T11:17:20;97871.78;;;27.40;60.96
36538;BME280;22545;48.892;9.138;2022-07-29T11:19:46;97872.75;;;27.47;62.39
36538;BME280;22545;48.892;9.138;2022-07-29T11:22:12;97869.13;;;27.48;62.70
36538;BME280;22545;48.892;9.138;2022-07-29T11:27:40;97868.94;;;27.58;63.16
36538;BME280;22545;48.892;9.138;2022-07-29T11:30:05;97868.75;;;27.67;62.39
36538;BME280;22545;48.892;9.138;2022-07-29T11:32:38;97873.44;;;27.97;58.01
36538;BME280;22545;48.892;9.138;2022-07-29T11:37:35;97895.72;;;27.22;62.64
36538;BME280;22545;48.892;9.138;2022-07-29T11:47:19;97880.19;;;26.36;85.34
36538;BME280;22545;48.892;9.138;2022-07-29T11:49:45;97877.13;;;26.06;88.41
36538;BME280;22545;48.892;9.138;2022-07-29T11:52:10;97863.88;;;25.90;93.49
36538;BME280;22545;48.892;9.138;2022-07-29T11:54:35;97874.81;;;26.03;97.55
36538;BME280;22545;48.892;9.138;2022-07-29T11:57:01;97875.34;;;25.81;98.41
36538;BME280;22545;48.892;9.138;2022-07-29T11:59:27;97869.75;;;26.18;98.56
36538;BME280;22545;48.892;9.138;2022-07-29T12:01:56;97869.09;;;26.24;95.14
36538;BME280;22545;48.892;9.138;2022-07-29T12:04:22;97868.63;;;26.29;95.82
36538;BME280;22545;48.892;9.138;2022-07-29T12:06:52;97864.13;;;26.13;93.59
36538;BME280;22545;48.892;9.138;2022-07-29T12:09:18;97881.34;;;25.30;100.00
36538;BME280;22545;48.892;9.138;2022-07-29T12:11:43;97877.84;;;24.49;100.00
36538;BME280;22545;48.892;9.138;2022-07-29T12:14:08;97880.69;;;24.56;100.00
36538;BME280;22545;48.892;9.138;2022-07-29T12:16:37;97879.00;;;24.65;100.00
36538;BME280;22545;48.892;9.138;2022-07-29T12:19:03;97873.19;;;24.97;100.00
36538;BME280;22545;48.892;9.138;2022-07-29T12:21:44;97870.66;;;25.14;100.00
36538;BME280;22545;48.892;9.138;2022-07-29T12:24:10;97869.44;;;25.26;100.00
36538;BME280;22545;48.892;9.138;2022-07-29T12:26:35;97872.63;;;25.12;100.00
36538;BME280;22545;48.892;9.138;2022-07-29T12:29:01;97869.00;;;24.86;100.00
36538;BME280;22545;48.892;9.138;2022-07-29T12:31:26;97872.53;;;24.95;100.00
36538;BME280;22545;48.892;9.138;2022-07-29T12:33:52;97873.03;;;24.81;100.00
36538;BME280;22545;48.892;9.138;2022-07-29T12:36:18;97877.47;;;24.98;100.00
36538;BME280;22545;48.892;9.138;2022-07-29T12:38:43;97874.97;;;25.15;100.00
36538;BME280;22545;48.892;9.138;2022-07-29T12:41:09;97879.25;;;25.34;100.00
36538;BME280;22545;48.892;9.138;2022-07-29T12:43:35;97878.09;;;24.92;100.00
36538;BME280;22545;48.892;9.138;2022-07-29T12:46:11;97878.75;;;24.94;100.00
36538;BME280;22545;48.892;9.138;2022-07-29T12:48:37;97874.88;;;25.06;100.00
36538;BME280;22545;48.892;9.138;2022-07-29T12:51:04;97884.16;;;24.92;100.00
36538;BME280;22545;48.892;9.138;2022-07-29T12:53:29;97881.09;;;24.79;100.00
36538;BME280;22545;48.892;9.138;2022-07-29T12:55:55;97881.59;;;24.29;100.00
36538;BME280;22545;48.892;9.138;2022-07-29T13:01:09;97882.66;;;24.36;100.00
36538;BME280;22545;48.892;9.138;2022-07-29T13:11:40;97892.56;;;24.42;100.00
36538;BME280;22545;48.892;9.138;2022-07-29T13:14:06;97898.19;;;24.47;100.00
36538;BME280;22545;48.892;9.138;2022-07-29T13:16:33;97896.47;;;24.10;100.00
36538;BME280;22545;48.892;9.138;2022-07-29T13:19:05;97896.13;;;24.23;100.00
36538;BME280;22545;48.892;9.138;2022-07-29T13:21:31;97892.63;;;24.32;100.00
36538;BME280;22545;48.892;9.138;2022-07-29T13:23:56;97901.19;;;24.34;100.00
36538;BME280;22545;48.892;9.138;2022-07-29T13:26:22;97896.47;;;24.38;100.00
36538;BME280;22545;48.892;9.138;2022-07-29T13:28:47;97905.31;;;24.37;100.00
36538;BME280;22545;48.892;9.138;2022-07-29T13:31:12;97910.34;;;24.30;100.00
36538;BME280;22545;48.892;9.138;2022-07-29T13:33:37;97908.50;;;24.41;100.00
36538;BME280;22545;48.892;9.138;2022-07-29T13:36:03;97909.75;;;24.36;100.00
36538;BME280;22545;48.892;9.138;2022-07-29T13:38:28;97913.00;;;24.48;100.00
36538;BME280;22545;48.892;9.138;2022-07-29T13:40:53;97902.81;;;24.63;100.00
36538;BME280;22545;48.892;9.138;2022-07-29T13:43:18;97895.25;;;24.78;100.00
36538;BME280;22545;48.892;9.138;2022-07-29T13:45:44;97889.81;;;24.98;100.00